createdAt,value
2022-09-11T00:05:05.783Z,44.34
2022-09-11T00:07:36.957Z,44.28
2022-09-11T00:10:03.785Z,44.34
2022-09-11T00:12:30.964Z,44.33
2022-09-11T00:14:57.414Z,44.29
2022-09-11T00:17:24.087Z,44.25
2022-09-11T00:19:50.662Z,44.23
2022-09-11T00:22:29.427Z,44.27
2022-09-11T00:24:56.210Z,44.12
2022-09-11T00:27:22.652Z,44.19
2022-09-11T00:32:41.343Z,44.17
2022-09-11T00:40:54.632Z,44.19
2022-09-11T00:43:21.825Z,44.08
2022-09-11T00:48:39.450Z,44.27
2022-09-11T00:51:06.265Z,44.31
2022-09-11T00:53:36.827Z,43.97
2022-09-11T00:56:09.700Z,44.13
2022-09-11T00:58:39.888Z,44.40
2022-09-11T01:01:06.449Z,44.07
2022-09-11T01:03:37.503Z,44.13
2022-09-11T01:06:04.595Z,44.30
2022-09-11T01:08:38.241Z,44.32
2022-09-11T01:11:23.222Z,44.20
2022-09-11T01:14:19.388Z,44.22
2022-09-11T01:17:13.123Z,44.41
2022-09-11T01:20:01.426Z,44.20
2022-09-11T01:23:02.809Z,44.25
2022-09-11T01:25:55.090Z,44.31
2022-09-11T01:28:51.772Z,44.40
2022-09-11T01:31:25.037Z,44.18
2022-09-11T01:34:11.596Z,44.30
2022-09-11T01:36:48.483Z,44.26
2022-09-11T01:39:20.252Z,44.22
2022-09-11T01:41:46.686Z,44.15
2022-09-11T01:44:18.588Z,44.28
2022-09-11T01:46:49.868Z,44.20
2022-09-11T01:49:28.569Z,44.29
2022-09-11T01:52:03.443Z,44.35
2022-09-11T01:54:34.915Z,44.28
2022-09-11T01:57:06.757Z,44.38
2022-09-11T01:59:41.085Z,44.24
2022-09-11T02:02:13.360Z,44.11
2022-09-11T02:04:57.452Z,43.96
2022-09-11T02:07:34.353Z,44.12
2022-09-11T02:10:07.552Z,44.33
2022-09-11T02:12:43.476Z,44.21
2022-09-11T02:15:13.625Z,44.21
2022-09-11T02:17:55.712Z,44.13
2022-09-11T02:20:22.385Z,44.24
2022-09-11T02:22:55.849Z,44.04
2022-09-11T02:25:22.407Z,44.10
2022-09-11T02:28:01.620Z,44.21
2022-09-11T02:30:28.350Z,44.23
2022-09-11T02:32:55.183Z,44.10
2022-09-11T02:35:26.145Z,44.26
2022-09-11T02:38:21.236Z,44.13
2022-09-11T02:41:09.162Z,44.21
2022-09-11T02:43:42.625Z,44.08
2022-09-11T02:46:16.274Z,44.11
2022-09-11T02:48:58.004Z,44.08
2022-09-11T02:51:41.600Z,44.08
2022-09-11T02:57:19.888Z,44.12
2022-09-11T02:59:53.220Z,44.26
2022-09-11T03:05:00.489Z,44.22
2022-09-11T03:07:34.958Z,44.16
2022-09-11T03:10:01.519Z,44.08
2022-09-11T03:17:50.780Z,43.92
2022-09-11T03:20:21.174Z,44.19
2022-09-11T03:25:28.291Z,44.00
2022-09-11T03:30:36.336Z,43.99
2022-09-11T03:33:03.058Z,44.19
2022-09-11T03:35:29.562Z,43.95
2022-09-11T03:40:42.123Z,44.05
2022-09-11T03:43:09.438Z,44.18
2022-09-11T03:45:36.271Z,44.08
2022-09-11T03:48:02.834Z,43.96
2022-09-11T03:50:29.325Z,43.77
2022-09-11T03:52:55.812Z,43.74
2022-09-11T03:55:23.805Z,43.62
2022-09-11T03:57:50.295Z,43.55
2022-09-11T04:00:16.829Z,43.70
2022-09-11T04:02:43.315Z,43.49
2022-09-11T04:05:10.640Z,43.37
2022-09-11T04:07:37.960Z,43.41
2022-09-11T04:10:04.843Z,43.51
2022-09-11T04:12:31.377Z,43.22
2022-09-11T04:14:57.826Z,43.29
2022-09-11T04:17:24.492Z,43.37
2022-09-11T04:19:50.991Z,43.09
2022-09-11T04:22:18.645Z,43.21
2022-09-11T04:24:45.253Z,43.09
2022-09-11T04:27:12.885Z,43.15
2022-09-11T04:29:39.311Z,43.01
2022-09-11T04:32:05.894Z,42.92
2022-09-11T04:34:32.390Z,42.93
2022-09-11T04:36:58.820Z,42.90
2022-09-11T04:39:25.350Z,42.71
2022-09-11T04:41:52.151Z,42.80
2022-09-11T04:44:20.681Z,42.67
2022-09-11T04:46:47.517Z,42.67
2022-09-11T04:49:22.007Z,42.56
2022-09-11T04:51:48.527Z,42.59
2022-09-11T04:54:16.736Z,42.68
2022-09-11T04:56:43.559Z,42.57
2022-09-11T04:59:19.786Z,42.62
2022-09-11T05:01:46.677Z,42.50
2022-09-11T05:04:14.225Z,42.80
2022-09-11T05:06:46.333Z,43.28
2022-09-11T05:09:12.785Z,43.30
2022-09-11T05:11:39.486Z,43.54
2022-09-11T05:14:06.425Z,44.09
2022-09-11T05:16:34.792Z,45.24
2022-09-11T05:21:44.558Z,46.18
2022-09-11T05:24:11.734Z,46.76
2022-09-11T05:26:38.601Z,47.40
2022-09-11T05:29:09.086Z,47.57
2022-09-11T05:31:37.178Z,47.70
2022-09-11T05:34:04.397Z,47.46
2022-09-11T05:36:31.143Z,47.46
2022-09-11T05:38:59.133Z,47.35
2022-09-11T05:41:33.741Z,47.37
2022-09-11T05:46:43.111Z,47.18
2022-09-11T05:49:09.981Z,47.16
2022-09-11T05:51:37.745Z,47.05
2022-09-11T05:54:04.871Z,47.08
2022-09-11T05:56:31.494Z,46.89
2022-09-11T05:58:58.671Z,46.55
2022-09-11T06:01:35.232Z,46.67
2022-09-11T06:04:02.727Z,46.60
2022-09-11T06:06:29.361Z,46.83
2022-09-11T06:08:55.963Z,46.88
2022-09-11T06:11:22.566Z,47.06
2022-09-11T06:13:50.405Z,46.86
2022-09-11T06:19:02.017Z,46.84
2022-09-11T06:21:29.263Z,46.92
2022-09-11T06:23:59.807Z,46.82
2022-09-11T06:26:27.246Z,47.02
2022-09-11T06:28:54.307Z,46.66
2022-09-11T06:31:24.266Z,46.69
2022-09-11T06:33:56.998Z,46.70
2022-09-11T06:36:30.356Z,46.83
2022-09-11T06:39:02.091Z,46.77
2022-09-11T06:41:28.701Z,46.63
2022-09-11T06:43:59.551Z,46.67
2022-09-11T06:49:07.328Z,46.70
2022-09-11T06:54:16.077Z,46.39
2022-09-11T06:56:42.563Z,46.37
2022-09-11T07:01:50.346Z,46.35
2022-09-11T07:04:16.835Z,46.43
2022-09-11T07:09:24.811Z,46.54
2022-09-11T07:11:59.141Z,46.32
2022-09-11T07:17:04.857Z,46.36
2022-09-11T07:19:36.229Z,46.43
2022-09-11T07:22:02.805Z,46.30
2022-09-11T07:27:10.331Z,46.39
2022-09-11T07:32:17.216Z,46.53
2022-09-11T07:34:48.939Z,46.24
2022-09-11T07:37:15.903Z,46.27
2022-09-11T07:50:24.776Z,46.17
2022-09-11T07:52:51.301Z,46.26
2022-09-11T07:55:18.889Z,46.21
2022-09-11T07:57:46.479Z,46.19
2022-09-11T08:00:16.247Z,46.26
2022-09-11T08:02:42.962Z,46.13
2022-09-11T08:05:10.944Z,46.17
2022-09-11T08:07:37.772Z,46.14
2022-09-11T08:10:26.045Z,46.35
2022-09-11T08:12:55.705Z,46.15
2022-09-11T08:23:26.456Z,46.24
2022-09-11T08:28:35.942Z,46.19
2022-09-11T08:31:03.119Z,46.14
2022-09-11T08:33:30.131Z,46.06
2022-09-11T08:36:08.249Z,46.08
2022-09-11T08:38:38.701Z,46.11
2022-09-11T08:41:23.421Z,45.84
2022-09-11T08:44:05.536Z,46.22
2022-09-11T08:49:27.042Z,46.02
2022-09-11T08:57:52.330Z,46.21
2022-09-11T09:00:24.698Z,45.80
2022-09-11T09:06:16.444Z,45.89
2022-09-11T09:08:58.476Z,46.06
2022-09-11T09:11:34.138Z,45.81
2022-09-11T09:14:05.917Z,46.02
2022-09-11T09:16:52.263Z,45.92
2022-09-11T09:22:53.313Z,45.81
2022-09-11T09:25:38.650Z,46.03
2022-09-11T09:31:07.497Z,45.87
2022-09-11T09:33:42.434Z,45.71
2022-09-11T09:39:02.268Z,45.90
2022-09-11T09:41:49.566Z,45.69
2022-09-11T09:44:31.195Z,45.65
2022-09-11T09:49:39.543Z,45.46
2022-09-11T09:57:57.071Z,45.37
2022-09-11T10:11:29.593Z,45.29
2022-09-11T10:16:37.897Z,45.22
2022-09-11T10:19:10.096Z,45.00
2022-09-11T10:24:17.826Z,45.20
2022-09-11T10:26:52.532Z,45.19
2022-09-11T10:32:09.634Z,45.19
2022-09-11T10:34:38.459Z,45.05
2022-09-11T10:37:13.958Z,45.16
2022-09-11T10:39:44.126Z,44.88
2022-09-11T10:42:16.871Z,45.02
2022-09-11T10:44:45.487Z,45.04
2022-09-11T10:47:25.135Z,44.96
2022-09-11T10:52:58.103Z,44.77
2022-09-11T11:01:01.593Z,44.75
2022-09-11T11:03:29.335Z,44.55
2022-09-11T11:06:14.550Z,44.57
2022-09-11T11:09:03.868Z,44.65
2022-09-11T11:14:49.623Z,44.46
2022-09-11T11:17:36.294Z,44.68
2022-09-11T11:20:31.668Z,44.37
2022-09-11T11:25:59.167Z,44.51
2022-09-11T11:28:58.283Z,44.43
2022-09-11T11:31:41.322Z,44.34
2022-09-11T11:34:25.574Z,44.63
2022-09-11T11:40:06.415Z,44.60
2022-09-11T11:42:39.910Z,44.32
2022-09-11T11:50:58.443Z,44.49
2022-09-11T11:53:39.401Z,44.35
2022-09-11T11:59:15.259Z,44.58
2022-09-11T12:01:56.200Z,44.42
2022-09-11T12:05:01.034Z,44.50
2022-09-11T12:07:38.132Z,44.62
2022-09-11T12:10:07.425Z,44.43
2022-09-11T12:12:42.758Z,44.36
2022-09-11T12:15:21.359Z,44.40
2022-09-11T12:18:00.280Z,44.44
2022-09-11T12:20:30.521Z,44.44
2022-09-11T12:23:02.563Z,44.49
2022-09-11T12:25:28.944Z,44.34
2022-09-11T12:31:15.787Z,44.32
2022-09-11T12:33:47.169Z,44.26
2022-09-11T12:39:26.080Z,44.25
2022-09-11T12:42:01.264Z,44.32
2022-09-11T12:44:46.091Z,44.25
2022-09-11T12:47:23.336Z,44.24
2022-09-11T12:50:06.691Z,44.11
2022-09-11T12:52:45.305Z,44.23
2022-09-11T12:55:45.089Z,44.28
2022-09-11T12:58:22.510Z,44.22
2022-09-11T13:01:00.068Z,44.47
2022-09-11T13:03:28.126Z,44.27
2022-09-11T13:05:59.989Z,44.29
2022-09-11T13:08:41.303Z,44.19
2022-09-11T13:11:51.596Z,44.34
2022-09-11T13:17:48.934Z,44.21
2022-09-11T13:20:23.295Z,44.10
2022-09-11T13:22:56.146Z,44.22
2022-09-11T13:25:27.952Z,44.31
2022-09-11T13:27:57.448Z,44.15
2022-09-11T13:30:25.751Z,44.13
2022-09-11T13:35:48.529Z,44.18
2022-09-11T13:38:26.548Z,43.99
2022-09-11T13:43:49.099Z,44.13
2022-09-11T13:46:15.683Z,44.05
2022-09-11T13:48:47.098Z,44.15
2022-09-11T13:51:20.721Z,44.09
2022-09-11T13:53:56.930Z,44.13
2022-09-11T13:56:41.586Z,43.96
2022-09-11T14:02:20.670Z,44.03
2022-09-11T14:04:49.183Z,44.04
2022-09-11T14:13:18.964Z,43.85
2022-09-11T14:16:08.837Z,43.88
2022-09-11T14:18:43.378Z,43.94
2022-09-11T14:21:24.851Z,43.90
2022-09-11T14:23:56.598Z,43.73
2022-09-11T14:26:32.454Z,43.69
2022-09-11T14:31:46.416Z,43.72
2022-09-11T14:34:26.758Z,43.84
2022-09-11T14:36:55.544Z,43.77
2022-09-11T14:39:49.252Z,43.91
2022-09-11T14:42:19.340Z,43.69
2022-09-11T14:44:45.810Z,44.18
2022-09-11T14:47:23.163Z,43.65
2022-09-11T14:49:54.755Z,43.67
2022-09-11T14:52:35.943Z,43.74
2022-09-11T14:57:49.871Z,43.54
2022-09-11T15:00:18.740Z,43.66
2022-09-11T15:02:46.308Z,43.50
2022-09-11T15:05:19.175Z,43.44
2022-09-11T15:08:00.366Z,43.57
2022-09-11T15:10:27.501Z,43.65
2022-09-11T15:12:55.462Z,43.57
2022-09-11T15:15:21.929Z,43.56
2022-09-11T15:17:48.407Z,43.47
2022-09-11T15:20:14.943Z,43.47
2022-09-11T15:22:45.356Z,43.46
2022-09-11T15:25:20.265Z,43.65
2022-09-11T15:30:33.129Z,43.47
2022-09-11T15:32:59.609Z,43.27
2022-09-11T15:35:32.112Z,43.46
2022-09-11T15:38:13.887Z,43.75
2022-09-11T15:43:25.627Z,43.29
2022-09-11T15:48:32.633Z,43.22
2022-09-11T15:51:02.994Z,43.29
2022-09-11T15:53:40.061Z,43.18
2022-09-11T15:56:09.261Z,43.36
2022-09-11T15:58:37.826Z,43.21
2022-09-11T16:01:04.432Z,43.16
2022-09-11T16:06:12.166Z,43.22
2022-09-11T16:08:53.864Z,43.42
2022-09-11T16:11:34.855Z,43.59
2022-09-11T16:14:01.392Z,43.21
2022-09-11T16:19:09.421Z,43.20
2022-09-11T16:21:36.096Z,43.16
2022-09-11T16:26:47.343Z,43.23
2022-09-11T16:31:56.398Z,43.10
2022-09-11T16:34:23.239Z,43.11
2022-09-11T16:39:30.616Z,43.00
2022-09-11T16:41:57.120Z,43.06
2022-09-11T16:44:23.612Z,43.11
2022-09-11T16:46:50.140Z,42.97
2022-09-11T16:49:18.935Z,43.00
2022-09-11T16:51:47.278Z,43.06
2022-09-11T16:54:13.807Z,42.94
2022-09-11T16:56:45.263Z,42.90
2022-09-11T16:59:12.427Z,43.04
2022-09-11T17:01:39.422Z,42.93
2022-09-11T17:04:09.855Z,43.07
2022-09-11T17:09:25.035Z,42.95
2022-09-11T17:11:51.478Z,42.90
2022-09-11T17:14:19.802Z,42.82
2022-09-11T17:16:46.443Z,42.90
2022-09-11T17:19:12.907Z,42.96
2022-09-11T17:21:39.715Z,42.97
2022-09-11T17:24:09.701Z,42.99
2022-09-11T17:37:36.966Z,42.89
2022-09-11T17:40:07.611Z,42.95
2022-09-11T17:42:34.128Z,42.82
2022-09-11T17:45:01.228Z,42.90
2022-09-11T17:50:13.936Z,42.86
2022-09-11T17:52:40.512Z,42.91
2022-09-11T17:55:07.207Z,42.91
2022-09-11T18:00:14.793Z,42.89
2022-09-11T18:02:41.294Z,42.84
2022-09-11T18:05:07.891Z,42.91
2022-09-11T18:07:42.008Z,42.84
2022-09-11T18:10:08.933Z,42.90
2022-09-11T18:15:16.073Z,42.83
2022-09-11T18:17:46.406Z,42.62
2022-09-11T18:20:12.966Z,42.87
2022-09-11T18:28:03.793Z,42.73
2022-09-11T18:30:42.622Z,42.81
2022-09-11T18:35:55.874Z,42.83
2022-09-11T18:38:22.395Z,42.81
2022-09-11T18:40:56.020Z,42.80
2022-09-11T18:43:22.465Z,42.70
2022-09-11T18:48:29.759Z,42.88
2022-09-11T18:56:20.568Z,42.88
2022-09-11T18:58:49.118Z,42.71
2022-09-11T19:01:20.179Z,42.71
2022-09-11T19:09:10.417Z,42.83
2022-09-11T19:14:18.880Z,42.78
2022-09-11T19:16:45.815Z,42.80
2022-09-11T19:19:12.268Z,42.73
2022-09-11T19:21:38.734Z,42.84
2022-09-11T19:24:06.813Z,42.82
2022-09-11T19:26:43.593Z,42.80
2022-09-11T19:29:21.096Z,42.83
2022-09-11T19:34:28.622Z,42.86
2022-09-11T19:36:55.208Z,42.86
2022-09-11T19:39:21.860Z,42.76
2022-09-11T19:41:49.082Z,42.64
2022-09-11T19:44:15.786Z,42.70
2022-09-11T19:46:43.103Z,42.85
2022-09-11T19:49:18.708Z,42.72
2022-09-11T19:51:45.413Z,42.91
2022-09-11T19:59:34.168Z,42.70
2022-09-11T20:04:41.404Z,42.62
2022-09-11T20:07:08.007Z,42.62
2022-09-11T20:09:34.569Z,42.67
2022-09-11T20:12:01.680Z,42.72
2022-09-11T20:14:29.488Z,42.72
2022-09-11T20:16:56.018Z,42.75
2022-09-11T20:19:23.606Z,42.63
2022-09-11T20:21:50.440Z,42.89
2022-09-11T20:24:17.244Z,42.76
2022-09-11T20:26:43.744Z,42.83
2022-09-11T20:31:55.841Z,42.66
2022-09-11T20:34:24.533Z,42.70
2022-09-11T20:36:50.967Z,42.72
2022-09-11T20:39:24.108Z,42.66
2022-09-11T20:41:50.695Z,42.75
2022-09-11T20:44:17.194Z,42.72
2022-09-11T20:46:47.264Z,42.72
2022-09-11T20:49:13.815Z,42.79
2022-09-11T20:51:40.504Z,42.72
2022-09-11T20:56:50.860Z,42.77
2022-09-11T20:59:17.571Z,42.70
2022-09-11T21:01:44.114Z,42.77
2022-09-11T21:04:10.626Z,42.85
2022-09-11T21:06:37.153Z,42.77
2022-09-11T21:09:06.882Z,42.67
2022-09-11T21:11:34.710Z,42.68
2022-09-11T21:14:01.287Z,42.70
2022-09-11T21:16:28.676Z,42.54
2022-09-11T21:18:58.217Z,42.72
2022-09-11T21:21:26.871Z,42.70
2022-09-11T21:23:58.179Z,42.71
2022-09-11T21:26:27.445Z,42.74
2022-09-11T21:28:55.812Z,42.78
2022-09-11T21:31:23.425Z,42.76
2022-09-11T21:33:50.198Z,42.70
2022-09-11T21:36:17.407Z,42.82
2022-09-11T21:38:49.257Z,42.66
2022-09-11T21:41:15.817Z,42.92
2022-09-11T21:43:42.314Z,42.72
2022-09-11T21:46:09.498Z,42.70
2022-09-11T21:48:38.412Z,42.58
2022-09-11T21:51:14.098Z,42.74
2022-09-11T21:53:43.516Z,42.79
2022-09-11T21:56:20.656Z,42.85
2022-09-11T21:58:48.656Z,42.75
2022-09-11T22:01:15.427Z,42.73
2022-09-11T22:03:41.980Z,42.73
2022-09-11T22:06:10.674Z,42.74
2022-09-11T22:08:40.249Z,42.80
2022-09-11T22:11:07.306Z,42.81
2022-09-11T22:13:37.385Z,42.79
2022-09-11T22:16:11.256Z,42.78
2022-09-11T22:18:39.479Z,42.82
2022-09-11T22:23:51.716Z,42.53
2022-09-11T22:26:20.572Z,42.81
2022-09-11T22:28:47.373Z,42.75
2022-09-11T22:31:17.661Z,42.83
2022-09-11T22:33:44.792Z,42.65
2022-09-11T22:36:15.223Z,42.81
2022-09-11T22:38:43.070Z,42.77
2022-09-11T22:41:10.158Z,42.80
2022-09-11T22:43:39.968Z,42.79
2022-09-11T22:46:07.062Z,42.83
2022-09-11T22:48:34.176Z,42.84
2022-09-11T22:51:01.029Z,42.81
2022-09-11T22:53:28.603Z,42.88
2022-09-11T22:55:56.146Z,42.80
2022-09-11T22:58:23.801Z,42.81
2022-09-11T23:00:53.957Z,42.87
2022-09-11T23:03:20.369Z,42.73
2022-09-11T23:06:06.860Z,42.77
2022-09-11T23:08:39.370Z,42.91
2022-09-11T23:11:06.482Z,43.02
2022-09-11T23:13:33.884Z,43.18
2022-09-11T23:16:00.999Z,42.88
2022-09-11T23:18:28.734Z,42.82
2022-09-11T23:20:56.911Z,42.84
2022-09-11T23:23:26.334Z,42.90
2022-09-11T23:25:52.865Z,42.84
2022-09-11T23:28:19.344Z,42.90
2022-09-11T23:30:45.825Z,42.85
2022-09-11T23:33:12.357Z,42.91
2022-09-11T23:35:39.817Z,42.92
2022-09-11T23:38:11.201Z,42.75
2022-09-11T23:40:38.688Z,42.87
2022-09-11T23:43:05.125Z,43.08
2022-09-11T23:45:31.613Z,42.90
2022-09-11T23:50:39.599Z,42.79
2022-09-11T23:53:06.232Z,42.97
